Belmont, Canada
Current Conditions -  °F | °C
As of 10:00 AM on Monday 26 Jan 2015 (Local Time) from CYHZ Reporting Station
Few Clouds Few Clouds  
Wind Chill: -3°   Ceiling: Unl
Heat Index: 12°   Visibility: 15mi
Dew Point:   Wind: 13mph
Humidity: 57%   Direction: 330°NNW
Pressure: 30.08"   Gusts: NA
Location:  45.42°N, 63.38°W
Report Text: CYHZ 261400Z 33011KT 15SM FEW020 FEW250 M11/M18 A3008 RMK SC1CI1 SLP195
Loading
Personal Weather Stations






























Interactive Weather Map New forecast layout! Learn more

10-Day Weather Forecast

Advertisements
Track Severe Weather on mobile